createdAt,value
2023-02-18T00:00:04.184Z,939.56
2023-02-18T00:05:03.233Z,939.60
2023-02-18T00:10:04.128Z,939.68
2023-02-18T00:15:03.073Z,939.84
2023-02-18T00:20:04.212Z,939.88
2023-02-18T00:25:03.138Z,940.00
2023-02-18T00:30:04.243Z,940.02
2023-02-18T00:35:02.992Z,940.11
2023-02-18T00:40:04.150Z,940.08
2023-02-18T00:45:04.201Z,940.09
2023-02-18T00:50:04.220Z,940.17
2023-02-18T00:55:03.139Z,940.33
2023-02-18T01:00:04.326Z,940.39
2023-02-18T01:05:03.293Z,940.35
2023-02-18T01:10:04.224Z,940.47
2023-02-18T01:15:03.127Z,940.59
2023-02-18T01:20:04.242Z,940.61
2023-02-18T01:25:03.237Z,940.70
2023-02-18T01:30:04.287Z,940.72
2023-02-18T01:35:03.047Z,940.86
2023-02-18T01:40:04.139Z,940.94
2023-02-18T01:45:03.138Z,941.13
2023-02-18T01:50:04.118Z,941.19
2023-02-18T01:55:03.154Z,941.25
2023-02-18T02:00:04.216Z,941.33
2023-02-18T02:05:03.256Z,941.45
2023-02-18T02:10:04.204Z,941.51
2023-02-18T02:15:03.171Z,941.43
2023-02-18T02:20:04.137Z,941.43
2023-02-18T02:25:03.179Z,941.51
2023-02-18T02:30:04.361Z,941.55
2023-02-18T02:35:03.114Z,941.55
2023-02-18T02:40:04.133Z,941.57
2023-02-18T02:45:03.084Z,941.72
2023-02-18T02:50:04.238Z,941.80
2023-02-18T02:55:03.049Z,941.86
2023-02-18T03:00:04.221Z,941.90
2023-02-18T03:05:03.151Z,941.92
2023-02-18T03:10:04.488Z,941.94
2023-02-18T03:15:03.105Z,941.96
2023-02-18T03:20:04.108Z,941.96
2023-02-18T03:25:03.077Z,941.94
2023-02-18T03:30:04.160Z,941.96
2023-02-18T03:35:03.022Z,942.02
2023-02-18T03:40:04.250Z,942.02
2023-02-18T03:45:03.083Z,942.02
2023-02-18T03:50:04.105Z,942.06
2023-02-18T03:55:03.084Z,942.11
2023-02-18T04:00:04.206Z,942.17
2023-02-18T04:05:03.091Z,942.17
2023-02-18T04:10:05.357Z,942.19
2023-02-18T04:15:04.122Z,942.21
2023-02-18T04:20:04.115Z,942.13
2023-02-18T04:25:03.131Z,942.04
2023-02-18T04:30:04.275Z,942.08
2023-02-18T04:35:03.151Z,942.06
2023-02-18T04:40:04.179Z,942.13
2023-02-18T04:45:03.189Z,942.19
2023-02-18T04:50:04.181Z,942.27
2023-02-18T04:55:03.062Z,942.27
2023-02-18T05:00:04.251Z,942.25
2023-02-18T05:05:03.029Z,942.23
2023-02-18T05:10:04.162Z,942.21
2023-02-18T05:15:03.206Z,942.15
2023-02-18T05:20:04.236Z,942.11
2023-02-18T05:25:03.104Z,942.10
2023-02-18T05:30:04.125Z,942.10
2023-02-18T05:35:03.093Z,942.11
2023-02-18T05:40:04.169Z,942.19
2023-02-18T05:45:03.116Z,942.17
2023-02-18T05:50:04.010Z,942.17
2023-02-18T05:55:03.192Z,942.13
2023-02-18T06:00:04.182Z,942.13
2023-02-18T06:05:03.102Z,942.17
2023-02-18T06:10:04.136Z,942.21
2023-02-18T06:15:03.063Z,942.17
2023-02-18T06:20:04.142Z,942.17
2023-02-18T06:25:03.077Z,942.27
2023-02-18T06:30:03.890Z,942.39
2023-02-18T06:35:03.099Z,942.39
2023-02-18T06:40:04.074Z,942.43
2023-02-18T06:45:03.122Z,942.55
2023-02-18T06:50:04.255Z,942.68
2023-02-18T06:55:03.091Z,942.74
2023-02-18T07:00:04.102Z,942.78
2023-02-18T07:05:03.211Z,942.78
2023-02-18T07:10:04.002Z,942.78
2023-02-18T07:15:03.032Z,942.82
2023-02-18T07:20:04.150Z,942.86
2023-02-18T07:25:02.997Z,942.98
2023-02-18T07:30:04.199Z,943.00
2023-02-18T07:35:03.138Z,943.02
2023-02-18T07:40:04.140Z,943.08
2023-02-18T07:45:03.148Z,943.08
2023-02-18T07:50:04.000Z,943.16
2023-02-18T07:55:03.134Z,943.18
2023-02-18T08:00:04.195Z,943.25
2023-02-18T08:05:03.196Z,943.35
2023-02-18T08:10:04.117Z,943.39
2023-02-18T08:15:03.088Z,943.47
2023-02-18T08:20:04.177Z,943.49
2023-02-18T08:25:03.225Z,943.51
2023-02-18T08:30:04.171Z,943.61
2023-02-18T08:35:03.076Z,943.63
2023-02-18T08:40:04.111Z,943.65
2023-02-18T08:45:03.017Z,943.65
2023-02-18T08:50:04.121Z,943.76
2023-02-18T08:55:03.049Z,943.76
2023-02-18T09:00:04.169Z,943.84
2023-02-18T09:05:03.050Z,943.92
2023-02-18T09:10:04.080Z,943.86
2023-02-18T09:15:03.018Z,943.92
2023-02-18T09:20:04.058Z,943.98
2023-02-18T09:25:03.155Z,944.04
2023-02-18T09:30:04.275Z,944.10
2023-02-18T09:35:03.102Z,944.17
2023-02-18T09:40:04.207Z,944.21
2023-02-18T09:45:03.032Z,944.25
2023-02-18T09:50:04.185Z,944.31
2023-02-18T09:55:03.130Z,944.33
2023-02-18T10:00:04.161Z,944.39
2023-02-18T10:05:03.043Z,944.45
2023-02-18T10:10:04.167Z,944.53
2023-02-18T10:15:03.025Z,944.57
2023-02-18T10:20:06.188Z,944.59
2023-02-18T10:25:04.116Z,944.67
2023-02-18T10:30:04.074Z,944.70
2023-02-18T10:35:03.016Z,944.70
2023-02-18T10:40:04.237Z,944.76
2023-02-18T10:45:03.013Z,944.84
2023-02-18T10:50:04.136Z,944.88
2023-02-18T10:55:02.989Z,944.86
2023-02-18T11:00:05.163Z,944.92
2023-02-18T11:05:03.422Z,944.98
2023-02-18T11:10:04.294Z,945.04
2023-02-18T11:15:03.149Z,945.16
2023-02-18T11:20:04.186Z,945.27
2023-02-18T11:25:04.514Z,945.35
2023-02-18T11:30:04.140Z,945.39
2023-02-18T11:35:03.073Z,945.41
2023-02-18T11:40:04.202Z,945.41
2023-02-18T11:45:05.468Z,945.41
2023-02-18T11:50:04.158Z,945.35
2023-02-18T11:55:03.042Z,945.41
2023-02-18T12:00:04.170Z,945.47
2023-02-18T12:05:03.145Z,945.41
2023-02-18T12:10:04.143Z,945.37
2023-02-18T12:15:02.970Z,945.37
2023-02-18T12:20:04.164Z,945.37
2023-02-18T12:25:03.074Z,945.37
2023-02-18T12:30:04.117Z,945.39
2023-02-18T12:35:03.087Z,945.41
2023-02-18T12:40:05.766Z,945.43
2023-02-18T12:45:03.114Z,945.47
2023-02-18T12:50:04.186Z,945.45
2023-02-18T12:55:03.132Z,945.45
2023-02-18T13:00:09.119Z,945.51
2023-02-18T13:05:03.043Z,945.47
2023-02-18T13:10:04.069Z,945.45
2023-02-18T13:15:03.049Z,945.51
2023-02-18T13:20:04.132Z,945.49
2023-02-18T13:25:03.062Z,945.49
2023-02-18T13:30:04.358Z,945.43
2023-02-18T13:35:03.124Z,945.49
2023-02-18T13:40:04.184Z,945.47
2023-02-18T13:45:03.220Z,945.43
2023-02-18T13:50:04.102Z,945.43
2023-02-18T13:55:03.065Z,945.41
2023-02-18T14:00:03.878Z,945.47
2023-02-18T14:05:03.069Z,945.45
2023-02-18T14:10:05.193Z,945.45
2023-02-18T14:15:03.170Z,945.39
2023-02-18T14:20:04.020Z,945.39
2023-02-18T14:25:03.162Z,945.37
2023-02-18T14:30:04.287Z,945.35
2023-02-18T14:35:03.074Z,945.41
2023-02-18T14:40:04.136Z,945.39
2023-02-18T14:45:03.018Z,945.39
2023-02-18T14:50:04.343Z,945.39
2023-02-18T14:55:03.123Z,945.37
2023-02-18T15:00:04.276Z,945.37
2023-02-18T15:05:03.063Z,945.37
2023-02-18T15:10:04.172Z,945.37
2023-02-18T15:15:03.152Z,945.29
2023-02-18T15:20:04.134Z,945.31
2023-02-18T15:25:03.138Z,945.27
2023-02-18T15:30:04.273Z,945.27
2023-02-18T15:35:03.115Z,945.25
2023-02-18T15:40:05.433Z,945.23
2023-02-18T15:45:03.056Z,945.23
2023-02-18T15:50:04.196Z,945.25
2023-02-18T15:55:03.116Z,945.23
2023-02-18T16:00:04.065Z,945.16
2023-02-18T16:05:05.204Z,945.16
2023-02-18T16:10:04.191Z,945.10
2023-02-18T16:15:03.076Z,945.04
2023-02-18T16:20:05.724Z,944.98
2023-02-18T16:25:03.044Z,944.94
2023-02-18T16:30:04.201Z,944.88
2023-02-18T16:35:03.105Z,944.80
2023-02-18T16:40:06.183Z,944.68
2023-02-18T16:45:03.124Z,944.61
2023-02-18T16:50:04.122Z,944.57
2023-02-18T16:55:03.042Z,944.49
2023-02-18T17:00:04.084Z,944.45
2023-02-18T17:05:03.300Z,944.35
2023-02-18T17:10:04.121Z,944.39
2023-02-18T17:15:03.140Z,944.37
2023-02-18T17:20:04.117Z,944.37
2023-02-18T17:25:03.008Z,944.29
2023-02-18T17:30:04.363Z,944.25
2023-02-18T17:35:03.181Z,944.17
2023-02-18T17:40:04.236Z,944.15
2023-02-18T17:45:03.088Z,944.13
2023-02-18T17:50:04.181Z,944.04
2023-02-18T17:55:03.103Z,944.04
2023-02-18T18:00:04.174Z,943.98
2023-02-18T18:05:03.097Z,943.96
2023-02-18T18:10:04.156Z,943.92
2023-02-18T18:15:03.183Z,943.82
2023-02-18T18:20:04.088Z,943.80
2023-02-18T18:25:02.989Z,943.82
2023-02-18T18:30:04.268Z,943.82
2023-02-18T18:35:03.165Z,943.70
2023-02-18T18:40:04.395Z,943.65
2023-02-18T18:45:03.059Z,943.51
2023-02-18T18:50:04.120Z,943.59
2023-02-18T18:55:03.045Z,943.47
2023-02-18T19:00:04.216Z,943.43
2023-02-18T19:05:03.083Z,943.27
2023-02-18T19:10:04.140Z,943.21
2023-02-18T19:15:03.049Z,943.20
2023-02-18T19:20:04.064Z,943.16
2023-02-18T19:25:02.999Z,943.02
2023-02-18T19:30:04.199Z,942.94
2023-02-18T19:35:04.114Z,942.88
2023-02-18T19:40:05.102Z,942.92
2023-02-18T19:45:03.128Z,942.94
2023-02-18T19:50:04.045Z,942.88
2023-02-18T19:55:04.116Z,942.86
2023-02-18T20:00:04.036Z,942.84
2023-02-18T20:05:03.010Z,942.86
2023-02-18T20:10:09.153Z,942.84
2023-02-18T20:15:03.112Z,942.76
2023-02-18T20:20:04.242Z,942.70
2023-02-18T20:25:03.066Z,942.70
2023-02-18T20:30:04.213Z,942.70
2023-02-18T20:35:03.033Z,942.68
2023-02-18T20:40:04.241Z,942.68
2023-02-18T20:45:04.178Z,942.74
2023-02-18T20:50:04.232Z,942.74
2023-02-18T20:55:04.069Z,942.72
2023-02-18T21:00:04.241Z,942.72
2023-02-18T21:05:03.071Z,942.72
2023-02-18T21:10:04.218Z,942.70
2023-02-18T21:15:03.189Z,942.72
2023-02-18T21:20:04.126Z,942.68
2023-02-18T21:25:03.106Z,942.66
2023-02-18T21:30:04.225Z,942.70
2023-02-18T21:35:03.058Z,942.68
2023-02-18T21:40:04.176Z,942.74
2023-02-18T21:45:03.137Z,942.74
2023-02-18T21:50:04.145Z,942.78
2023-02-18T21:55:03.113Z,942.82
2023-02-18T22:00:14.778Z,942.90
2023-02-18T22:05:03.139Z,943.02
2023-02-18T22:10:04.202Z,943.02
2023-02-18T22:15:03.194Z,943.12
2023-02-18T22:20:04.222Z,943.08
2023-02-18T22:25:03.077Z,943.08
2023-02-18T22:30:04.426Z,943.12
2023-02-18T22:35:03.142Z,943.16
2023-02-18T22:40:04.331Z,943.20
2023-02-18T22:45:03.182Z,943.23
2023-02-18T22:50:04.096Z,943.31
2023-02-18T22:55:03.174Z,943.33
2023-02-18T23:00:04.250Z,943.43
2023-02-18T23:05:03.132Z,943.43
2023-02-18T23:10:04.177Z,943.47
2023-02-18T23:15:03.124Z,943.63
2023-02-18T23:20:04.337Z,943.66
2023-02-18T23:25:03.108Z,943.72
2023-02-18T23:30:04.269Z,943.78
2023-02-18T23:35:03.166Z,943.80
2023-02-18T23:40:04.296Z,943.80
2023-02-18T23:45:03.177Z,943.82
2023-02-18T23:50:03.981Z,943.90
2023-02-18T23:55:03.177Z,944.04
